createdAt,value
2023-04-28T00:00:54.260Z,9.60
2023-04-28T00:03:42.911Z,9.52
2023-04-28T00:06:32.010Z,9.54
2023-04-28T00:09:20.697Z,9.59
2023-04-28T00:12:09.059Z,9.57
2023-04-28T00:14:58.809Z,9.56
2023-04-28T00:17:47.352Z,9.56
2023-04-28T00:20:35.758Z,9.58
2023-04-28T00:23:24.173Z,9.60
2023-04-28T00:26:12.619Z,9.61
2023-04-28T00:29:02.988Z,9.53
2023-04-28T00:31:52.861Z,9.52
2023-04-28T00:34:41.724Z,9.51
2023-04-28T00:37:30.100Z,9.50
2023-04-28T00:40:18.558Z,9.46
2023-04-28T00:43:07.092Z,9.45
2023-04-28T00:45:55.673Z,9.42
2023-04-28T00:48:45.458Z,9.39
2023-04-28T00:51:34.422Z,9.37
2023-04-28T00:54:22.965Z,9.34
2023-04-28T00:57:11.587Z,9.35
2023-04-28T00:59:59.969Z,9.37
2023-04-28T01:02:48.492Z,9.38
2023-04-28T01:05:41.289Z,9.35
2023-04-28T01:08:29.794Z,9.31
2023-04-28T01:11:18.809Z,9.30
2023-04-28T01:14:42.337Z,9.27
2023-04-28T01:17:30.915Z,9.24
2023-04-28T01:20:19.572Z,9.25
2023-04-28T01:23:13.275Z,9.20
2023-04-28T01:26:03.476Z,9.23
2023-04-28T01:28:51.913Z,9.23
2023-04-28T01:31:41.299Z,9.23
2023-04-28T01:34:29.806Z,9.24
2023-04-28T01:37:18.243Z,9.25
2023-04-28T01:40:08.135Z,9.23
2023-04-28T01:42:57.877Z,9.26
2023-04-28T01:45:46.266Z,9.24
2023-04-28T01:48:34.660Z,9.25
2023-04-28T01:51:23.066Z,9.24
2023-04-28T01:54:11.418Z,9.25
2023-04-28T01:57:02.453Z,9.24
2023-04-28T01:59:53.587Z,9.23
2023-04-28T02:02:42.189Z,9.22
2023-04-28T02:05:30.655Z,9.22
2023-04-28T02:08:18.970Z,9.19
2023-04-28T02:11:07.384Z,9.20
2023-04-28T02:13:56.078Z,9.23
2023-04-28T02:16:45.831Z,9.22
2023-04-28T02:19:34.194Z,9.24
2023-04-28T02:22:22.568Z,9.20
2023-04-28T02:25:11.212Z,9.21
2023-04-28T02:28:00.327Z,9.22
2023-04-28T02:30:48.771Z,9.24
2023-04-28T02:33:39.888Z,9.24
2023-04-28T02:36:28.828Z,9.22
2023-04-28T02:39:17.255Z,9.25
2023-04-28T02:42:05.790Z,9.27
2023-04-28T02:44:54.137Z,9.27
2023-04-28T02:47:42.834Z,9.29
2023-04-28T02:50:32.616Z,9.32
2023-04-28T02:53:21.249Z,9.33
2023-04-28T02:56:10.066Z,9.36
2023-04-28T02:58:58.617Z,9.27
2023-04-28T03:01:47.296Z,9.31
2023-04-28T03:04:35.887Z,9.32
2023-04-28T03:07:25.679Z,9.35
2023-04-28T03:10:14.873Z,9.36
2023-04-28T03:13:03.478Z,9.25
2023-04-28T03:15:52.565Z,9.28
2023-04-28T03:18:40.983Z,9.31
2023-04-28T03:21:29.746Z,9.36
2023-04-28T03:24:19.507Z,9.38
2023-04-28T03:27:08.019Z,9.41
2023-04-28T03:29:58.344Z,9.42
2023-04-28T03:32:46.734Z,9.43
2023-04-28T03:35:35.188Z,9.43
2023-04-28T03:38:23.597Z,9.46
2023-04-28T03:41:13.622Z,9.47
2023-04-28T03:44:23.483Z,9.48
2023-04-28T03:47:13.592Z,9.50
2023-04-28T03:50:02.271Z,9.47
2023-04-28T03:52:50.870Z,9.27
2023-04-28T03:55:39.813Z,9.24
2023-04-28T03:58:29.542Z,9.26
2023-04-28T04:01:17.957Z,9.29
2023-04-28T04:04:07.084Z,9.32
2023-04-28T04:06:56.094Z,9.34
2023-04-28T04:09:45.057Z,9.31
2023-04-28T04:12:33.424Z,9.29
2023-04-28T04:15:23.219Z,9.31
2023-04-28T04:18:11.822Z,9.30
2023-04-28T04:21:20.209Z,9.38
2023-04-28T04:24:10.779Z,9.47
2023-04-28T04:26:59.698Z,9.53
2023-04-28T04:29:55.313Z,9.56
2023-04-28T04:32:45.103Z,9.52
2023-04-28T04:35:33.856Z,9.30
2023-04-28T04:38:22.229Z,9.49
2023-04-28T04:41:10.635Z,9.54
2023-04-28T04:43:59.001Z,9.62
2023-04-28T04:46:52.313Z,9.68
2023-04-28T04:49:42.615Z,9.69
2023-04-28T04:52:31.138Z,9.72
2023-04-28T04:55:19.917Z,9.74
2023-04-28T04:58:08.482Z,9.79
2023-04-28T05:01:05.789Z,9.83
2023-04-28T05:03:54.557Z,9.86
2023-04-28T05:06:45.083Z,9.89
2023-04-28T05:09:34.874Z,9.89
2023-04-28T05:12:23.251Z,9.90
2023-04-28T05:15:12.526Z,9.92
2023-04-28T05:18:11.037Z,9.90
2023-04-28T05:20:59.565Z,9.90
2023-04-28T05:23:50.037Z,9.91
2023-04-28T05:26:38.483Z,9.89
2023-04-28T05:29:30.523Z,9.81
2023-04-28T05:32:18.934Z,9.93
2023-04-28T05:35:08.123Z,9.83
2023-04-28T05:37:56.673Z,9.98
2023-04-28T05:40:46.448Z,10.06
2023-04-28T05:43:34.937Z,10.07
2023-04-28T05:46:30.801Z,9.92
2023-04-28T05:49:21.153Z,9.94
2023-04-28T05:52:09.552Z,10.07
2023-04-28T05:54:58.156Z,10.02
2023-04-28T05:57:53.171Z,9.93
2023-04-28T06:00:42.096Z,9.99
2023-04-28T06:03:30.661Z,10.03
2023-04-28T06:06:19.209Z,10.14
2023-04-28T06:09:07.919Z,10.23
2023-04-28T06:11:56.424Z,10.27
2023-04-28T06:14:46.333Z,10.27
2023-04-28T06:17:35.167Z,10.29
2023-04-28T06:20:23.574Z,10.32
2023-04-28T06:23:12.020Z,10.33
2023-04-28T06:26:05.528Z,10.33
2023-04-28T06:28:53.961Z,10.32
2023-04-28T06:31:43.729Z,10.33
2023-04-28T06:34:32.871Z,10.34
2023-04-28T06:37:21.274Z,10.33
2023-04-28T06:40:10.931Z,10.32
2023-04-28T06:43:02.688Z,10.35
2023-04-28T06:46:05.120Z,10.40
2023-04-28T06:48:54.818Z,10.44
2023-04-28T06:51:43.324Z,10.45
2023-04-28T06:54:32.054Z,10.37
2023-04-28T06:57:21.133Z,10.06
2023-04-28T07:00:11.943Z,10.00
2023-04-28T07:03:00.475Z,10.00
2023-04-28T07:05:50.455Z,10.13
2023-04-28T07:08:38.809Z,10.23
2023-04-28T07:11:27.165Z,10.32
2023-04-28T07:14:15.790Z,10.33
2023-04-28T07:17:04.351Z,10.32
2023-04-28T07:19:52.752Z,10.37
2023-04-28T07:22:42.569Z,10.43
2023-04-28T07:25:31.138Z,10.46
2023-04-28T07:28:20.414Z,10.52
2023-04-28T07:31:08.876Z,10.53
2023-04-28T07:33:57.763Z,10.59
2023-04-28T07:36:46.387Z,10.60
2023-04-28T07:39:36.181Z,10.63
2023-04-28T07:42:24.640Z,10.64
2023-04-28T07:45:13.950Z,10.58
2023-04-28T07:48:02.380Z,10.39
2023-04-28T07:50:50.848Z,10.56
2023-04-28T07:53:39.194Z,10.67
2023-04-28T07:56:28.910Z,10.76
2023-04-28T07:59:17.251Z,10.84
2023-04-28T08:02:06.126Z,10.87
2023-04-28T08:04:54.727Z,10.93
2023-04-28T08:07:43.309Z,10.75
2023-04-28T08:10:31.687Z,10.82
2023-04-28T08:13:21.476Z,10.89
2023-04-28T08:16:09.921Z,10.99
2023-04-28T08:18:59.043Z,10.68
2023-04-28T08:21:47.519Z,10.86
2023-04-28T08:24:36.112Z,11.01
2023-04-28T08:27:25.807Z,11.14
2023-04-28T08:30:15.577Z,10.95
2023-04-28T08:33:04.061Z,10.88
2023-04-28T08:35:52.562Z,10.96
2023-04-28T08:38:40.974Z,10.97
2023-04-28T08:41:30.009Z,11.12
2023-04-28T08:44:18.825Z,11.14
2023-04-28T08:47:14.250Z,11.26
2023-04-28T08:50:04.917Z,11.37
2023-04-28T08:52:53.798Z,11.51
2023-04-28T08:55:42.447Z,11.58
2023-04-28T08:58:30.811Z,11.66
2023-04-28T09:01:19.237Z,11.76
2023-04-28T09:04:12.662Z,11.79
2023-04-28T09:07:02.746Z,11.85
2023-04-28T09:09:51.485Z,11.86
2023-04-28T09:12:40.002Z,11.89
2023-04-28T09:15:32.679Z,11.98
2023-04-28T09:18:22.140Z,12.05
2023-04-28T09:21:13.374Z,12.11
2023-04-28T09:24:01.809Z,12.16
2023-04-28T09:26:52.556Z,12.17
2023-04-28T09:29:53.888Z,12.14
2023-04-28T09:32:42.917Z,12.22
2023-04-28T09:35:41.001Z,12.25
2023-04-28T09:38:30.845Z,12.32
2023-04-28T09:41:19.209Z,12.32
2023-04-28T09:44:15.327Z,12.31
2023-04-28T09:47:22.261Z,12.22
2023-04-28T09:50:14.603Z,12.26
2023-04-28T09:53:04.156Z,12.26
2023-04-28T09:55:56.028Z,12.24
2023-04-28T09:58:45.684Z,12.24
2023-04-28T10:01:37.572Z,12.30
2023-04-28T10:04:27.194Z,12.41
2023-04-28T10:07:16.658Z,12.36
2023-04-28T10:10:05.575Z,12.31
2023-04-28T10:12:56.906Z,12.43
2023-04-28T10:15:46.152Z,12.49
2023-04-28T10:18:36.479Z,12.52
2023-04-28T10:21:25.403Z,12.45
2023-04-28T10:24:17.174Z,12.40
2023-04-28T10:27:08.513Z,12.44
2023-04-28T10:30:22.865Z,12.47
2023-04-28T10:33:25.602Z,12.46
2023-04-28T10:36:50.923Z,12.51
2023-04-28T10:39:39.672Z,12.56
2023-04-28T10:42:53.390Z,12.46
2023-04-28T10:46:06.460Z,12.54
2023-04-28T10:48:58.675Z,12.40
2023-04-28T10:51:47.106Z,12.46
2023-04-28T10:54:36.382Z,12.39
2023-04-28T10:57:24.771Z,12.43
2023-04-28T11:00:29.229Z,12.40
2023-04-28T11:03:47.216Z,12.48
2023-04-28T11:06:37.474Z,12.49
2023-04-28T11:09:50.213Z,12.49
2023-04-28T11:13:17.365Z,12.55
2023-04-28T11:16:06.952Z,12.57
2023-04-28T11:19:04.530Z,12.56
2023-04-28T11:21:55.039Z,12.46
2023-04-28T11:24:43.607Z,12.47
2023-04-28T11:27:33.530Z,12.47
2023-04-28T11:30:23.007Z,12.45
2023-04-28T11:33:11.524Z,12.57
2023-04-28T11:36:01.750Z,12.60
2023-04-28T11:38:50.174Z,12.60
2023-04-28T11:41:41.174Z,12.48
2023-04-28T11:44:30.708Z,12.58
2023-04-28T11:47:29.922Z,12.63
2023-04-28T11:50:18.358Z,12.66
2023-04-28T11:53:08.325Z,12.63
2023-04-28T11:56:08.060Z,12.65
2023-04-28T11:59:04.589Z,12.52
2023-04-28T12:01:54.391Z,12.63
2023-04-28T12:04:44.149Z,12.64
2023-04-28T12:07:42.314Z,12.55
2023-04-28T12:10:32.120Z,12.63
2023-04-28T12:13:20.536Z,12.66
2023-04-28T12:16:09.726Z,12.71
2023-04-28T12:19:00.264Z,12.71
2023-04-28T12:22:03.072Z,12.73
2023-04-28T12:25:05.228Z,12.74
2023-04-28T12:28:02.885Z,12.70
2023-04-28T12:30:51.636Z,12.77
2023-04-28T12:33:40.616Z,12.90
2023-04-28T12:36:29.546Z,12.89
2023-04-28T12:39:20.026Z,13.01
2023-04-28T12:42:08.565Z,13.07
2023-04-28T12:44:58.624Z,13.14
2023-04-28T12:47:47.344Z,13.11
2023-04-28T12:50:35.930Z,13.22
2023-04-28T12:53:24.366Z,13.35
2023-04-28T12:56:12.803Z,13.41
2023-04-28T12:59:02.634Z,13.34
2023-04-28T13:01:52.587Z,13.49
2023-04-28T13:04:43.052Z,13.59
2023-04-28T13:07:32.172Z,13.64
2023-04-28T13:10:22.414Z,13.67
2023-04-28T13:13:10.921Z,13.77
2023-04-28T13:15:59.424Z,13.89
2023-04-28T13:18:50.056Z,13.79
2023-04-28T13:21:39.291Z,13.82
2023-04-28T13:24:27.887Z,13.90
2023-04-28T13:27:16.294Z,13.74
2023-04-28T13:30:05.545Z,13.80
2023-04-28T13:32:55.416Z,13.97
2023-04-28T13:35:47.094Z,14.07
2023-04-28T13:38:35.681Z,13.93
2023-04-28T13:41:24.114Z,13.97
2023-04-28T13:44:12.506Z,13.97
2023-04-28T13:47:00.937Z,14.04
2023-04-28T13:49:50.396Z,14.16
2023-04-28T13:52:40.131Z,14.09
2023-04-28T13:55:28.617Z,14.05
2023-04-28T13:58:16.979Z,14.19
2023-04-28T14:01:05.614Z,14.06
2023-04-28T14:03:54.389Z,14.02
2023-04-28T14:06:42.909Z,14.07
2023-04-28T14:09:33.386Z,14.08
2023-04-28T14:12:21.785Z,13.99
2023-04-28T14:15:10.668Z,13.95
2023-04-28T14:17:59.126Z,13.88
2023-04-28T14:20:49.098Z,13.66
2023-04-28T14:23:38.440Z,13.52
2023-04-28T14:26:28.409Z,13.61
2023-04-28T14:29:16.848Z,13.60
2023-04-28T14:32:05.394Z,13.68
2023-04-28T14:34:53.824Z,13.81
2023-04-28T14:37:42.491Z,13.76
2023-04-28T14:40:31.124Z,13.90
2023-04-28T14:43:20.958Z,13.96
2023-04-28T14:46:09.364Z,13.98
2023-04-28T14:48:58.458Z,13.88
2023-04-28T14:51:47.649Z,14.00
2023-04-28T14:54:36.181Z,13.76
2023-04-28T14:57:25.070Z,13.92
2023-04-28T15:00:16.281Z,13.95
2023-04-28T15:03:05.193Z,13.87
2023-04-28T15:05:53.892Z,13.85
2023-04-28T15:08:42.327Z,13.85
2023-04-28T15:11:30.968Z,13.67
2023-04-28T15:14:19.740Z,13.75
2023-04-28T15:17:09.848Z,13.78
2023-04-28T15:19:58.377Z,13.89
2023-04-28T15:22:46.928Z,13.98
2023-04-28T15:25:35.689Z,13.84
2023-04-28T15:28:24.042Z,13.64
2023-04-28T15:31:12.472Z,13.59
2023-04-28T15:34:02.355Z,13.71
2023-04-28T15:36:53.656Z,13.64
2023-04-28T15:39:42.510Z,13.60
2023-04-28T15:42:31.350Z,13.64
2023-04-28T15:45:20.836Z,13.75
2023-04-28T15:48:10.174Z,13.65
2023-04-28T15:50:59.926Z,13.53
2023-04-28T15:53:50.684Z,13.60
2023-04-28T15:56:39.044Z,13.56
2023-04-28T15:59:27.499Z,13.58
2023-04-28T16:02:15.954Z,13.75
2023-04-28T16:05:05.153Z,13.72
2023-04-28T16:07:55.125Z,13.78
2023-04-28T16:10:44.071Z,13.75
2023-04-28T16:13:36.939Z,13.74
2023-04-28T16:16:25.742Z,13.77
2023-04-28T16:19:15.791Z,13.74
2023-04-28T16:22:04.252Z,13.66
2023-04-28T16:24:54.287Z,13.64
2023-04-28T16:27:42.691Z,13.68
2023-04-28T16:30:32.698Z,13.56
2023-04-28T16:33:21.104Z,13.50
2023-04-28T16:36:09.598Z,13.53
2023-04-28T16:38:57.965Z,13.73
2023-04-28T16:41:47.701Z,13.75
2023-04-28T16:44:36.482Z,13.62
2023-04-28T16:47:24.930Z,13.55
2023-04-28T16:50:14.896Z,13.62
2023-04-28T16:53:03.382Z,13.61
2023-04-28T16:55:51.717Z,13.77
2023-04-28T16:58:41.641Z,13.75
2023-04-28T17:01:31.725Z,13.64
2023-04-28T17:04:20.461Z,13.73
2023-04-28T17:07:09.459Z,13.80
2023-04-28T17:09:57.989Z,13.96
2023-04-28T17:12:46.399Z,14.05
2023-04-28T17:15:36.727Z,14.12
2023-04-28T17:18:26.120Z,14.16
2023-04-28T17:21:15.626Z,14.20
2023-04-28T17:24:04.187Z,14.11
2023-04-28T17:26:52.574Z,13.86
2023-04-28T17:29:41.435Z,14.01
2023-04-28T17:32:31.990Z,13.95
2023-04-28T17:35:20.610Z,14.05
2023-04-28T17:38:09.084Z,14.10
2023-04-28T17:40:57.435Z,14.07
2023-04-28T17:43:46.022Z,13.70
2023-04-28T17:46:34.470Z,13.81
2023-04-28T17:49:25.176Z,13.93
2023-04-28T17:52:15.537Z,13.95
2023-04-28T17:55:03.920Z,13.85
2023-04-28T17:57:52.401Z,13.95
2023-04-28T18:00:40.892Z,13.97
2023-04-28T18:03:29.465Z,13.95
2023-04-28T18:06:22.346Z,13.92
2023-04-28T18:09:10.755Z,13.89
2023-04-28T18:11:59.207Z,13.78
2023-04-28T18:14:47.656Z,13.60
2023-04-28T18:17:36.050Z,13.66
2023-04-28T18:20:24.622Z,13.43
2023-04-28T18:23:14.363Z,13.43
2023-04-28T18:26:02.943Z,13.35
2023-04-28T18:28:51.402Z,13.13
2023-04-28T18:31:40.163Z,13.14
2023-04-28T18:34:28.671Z,13.26
2023-04-28T18:37:17.179Z,13.12
2023-04-28T18:40:07.703Z,13.23
2023-04-28T18:42:56.391Z,13.32
2023-04-28T18:45:45.038Z,13.18
2023-04-28T18:48:34.264Z,13.14
2023-04-28T18:51:23.010Z,12.93
2023-04-28T18:54:11.515Z,13.02
2023-04-28T18:57:01.343Z,12.93
2023-04-28T18:59:50.062Z,12.88
2023-04-28T19:02:38.732Z,12.82
2023-04-28T19:05:27.308Z,12.78
2023-04-28T19:08:15.758Z,12.81
2023-04-28T19:11:04.224Z,12.78
2023-04-28T19:13:54.217Z,12.76
2023-04-28T19:16:42.762Z,12.78
2023-04-28T19:19:31.274Z,12.80
2023-04-28T19:22:33.034Z,12.80
2023-04-28T19:25:21.496Z,12.83
2023-04-28T19:28:10.856Z,12.79
2023-04-28T19:31:00.669Z,12.87
2023-04-28T19:33:49.144Z,12.89
2023-04-28T19:36:37.650Z,12.82
2023-04-28T19:39:28.665Z,12.90
2023-04-28T19:42:17.804Z,12.92
2023-04-28T19:45:07.678Z,12.89
2023-04-28T19:47:58.037Z,12.86
2023-04-28T19:50:46.679Z,12.86
2023-04-28T19:53:38.866Z,12.75
2023-04-28T19:56:27.356Z,12.71
2023-04-28T19:59:15.904Z,12.72
2023-04-28T20:02:07.792Z,12.71
2023-04-28T20:04:57.701Z,12.70
2023-04-28T20:07:46.227Z,12.56
2023-04-28T20:10:34.709Z,12.64
2023-04-28T20:13:23.278Z,12.69
2023-04-28T20:16:11.892Z,12.72
2023-04-28T20:19:00.327Z,12.78
2023-04-28T20:21:50.229Z,12.80
2023-04-28T20:24:39.533Z,12.69
2023-04-28T20:27:28.160Z,12.66
2023-04-28T20:30:16.744Z,12.57
2023-04-28T20:33:05.424Z,12.50
2023-04-28T20:35:54.012Z,12.36
2023-04-28T20:38:44.452Z,12.38
2023-04-28T20:41:33.392Z,12.36
2023-04-28T20:44:22.199Z,12.33
2023-04-28T20:47:10.984Z,12.18
2023-04-28T20:49:59.387Z,12.23
2023-04-28T20:52:47.952Z,12.07
2023-04-28T20:55:37.927Z,12.13
2023-04-28T20:58:26.504Z,12.17
2023-04-28T21:01:15.088Z,12.26
2023-04-28T21:04:03.647Z,12.08
2023-04-28T21:06:53.406Z,12.03
2023-04-28T21:09:42.218Z,11.98
2023-04-28T21:12:32.019Z,12.07
2023-04-28T21:15:20.651Z,12.02
2023-04-28T21:18:09.324Z,11.95
2023-04-28T21:20:57.741Z,11.86
2023-04-28T21:23:46.182Z,12.00
2023-04-28T21:26:34.707Z,12.13
2023-04-28T21:29:24.785Z,12.19
2023-04-28T21:32:13.348Z,12.26
2023-04-28T21:35:01.864Z,12.23
2023-04-28T21:37:50.204Z,12.05
2023-04-28T21:40:38.593Z,11.98
2023-04-28T21:43:26.992Z,11.94
2023-04-28T21:46:18.913Z,11.99
2023-04-28T21:49:07.715Z,11.94
2023-04-28T21:51:56.078Z,12.06
2023-04-28T21:54:44.474Z,11.92
2023-04-28T21:57:33.040Z,11.96
2023-04-28T22:00:22.854Z,11.94
2023-04-28T22:03:14.700Z,11.96
2023-04-28T22:06:03.502Z,11.78
2023-04-28T22:08:51.941Z,11.88
2023-04-28T22:11:40.350Z,11.86
2023-04-28T22:14:40.240Z,11.70
2023-04-28T22:17:29.625Z,11.66
2023-04-28T22:20:19.363Z,11.53
2023-04-28T22:23:08.177Z,11.39
2023-04-28T22:25:59.102Z,11.55
2023-04-28T22:28:47.530Z,11.54
2023-04-28T22:31:35.947Z,11.55
2023-04-28T22:34:24.520Z,11.59
2023-04-28T22:37:14.356Z,11.60
2023-04-28T22:40:02.750Z,11.62
2023-04-28T22:42:51.213Z,11.65
2023-04-28T22:45:39.617Z,11.60
2023-04-28T22:48:27.974Z,11.69
2023-04-28T22:51:16.917Z,11.74
2023-04-28T22:54:06.698Z,11.75
2023-04-28T22:56:55.063Z,11.73
2023-04-28T22:59:43.570Z,11.68
2023-04-28T23:02:32.089Z,11.67
2023-04-28T23:05:20.648Z,11.57
2023-04-28T23:08:09.014Z,11.60
2023-04-28T23:10:58.810Z,11.70
2023-04-28T23:13:47.185Z,11.70
2023-04-28T23:16:36.318Z,11.75
2023-04-28T23:19:24.942Z,11.73
2023-04-28T23:22:13.281Z,11.77
2023-04-28T23:25:01.780Z,11.84
2023-04-28T23:27:51.600Z,11.89
2023-04-28T23:30:40.190Z,11.90
2023-04-28T23:33:29.587Z,11.86
2023-04-28T23:36:18.564Z,11.89
2023-04-28T23:39:07.849Z,11.85
2023-04-28T23:41:56.178Z,11.82
2023-04-28T23:44:46.173Z,11.89
2023-04-28T23:47:34.610Z,11.86
2023-04-28T23:50:23.860Z,11.91
2023-04-28T23:53:12.651Z,11.89
2023-04-28T23:56:01.152Z,11.88
2023-04-28T23:58:50.173Z,11.92
